sensor_id;sensor_type;location;lat;lon;timestamp;pressure;altitude;pressure_sealevel;temperature;humidity
72024;BME280;59889;50.700;5.440;2023-07-22T00:00:26;99950.14;;;27.47;26.60
72024;BME280;59889;50.700;5.440;2023-07-22T00:02:52;99951.51;;;27.41;26.60
72024;BME280;59889;50.700;5.440;2023-07-22T00:05:18;99949.27;;;27.75;26.50
72024;BME280;59889;50.700;5.440;2023-07-22T00:07:44;99951.20;;;27.69;26.54
72024;BME280;59889;50.700;5.440;2023-07-22T00:10:09;99950.32;;;27.61;26.64
72024;BME280;59889;50.700;5.440;2023-07-22T00:12:35;99947.60;;;27.47;26.54
72024;BME280;59889;50.700;5.440;2023-07-22T00:15:01;99949.00;;;27.68;26.55
72024;BME280;59889;50.700;5.440;2023-07-22T00:17:27;99946.72;;;27.35;26.66
72024;BME280;59889;50.700;5.440;2023-07-22T00:19:53;99946.01;;;27.62;26.60
72024;BME280;59889;50.700;5.440;2023-07-22T00:22:20;99947.82;;;27.54;26.71
72024;BME280;59889;50.700;5.440;2023-07-22T00:24:44;99943.01;;;27.59;26.67
72024;BME280;59889;50.700;5.440;2023-07-22T00:27:10;99944.80;;;27.40;26.62
72024;BME280;59889;50.700;5.440;2023-07-22T00:29:36;99943.62;;;27.73;26.50
72024;BME280;59889;50.700;5.440;2023-07-22T00:32:02;99945.91;;;27.66;26.57
72024;BME280;59889;50.700;5.440;2023-07-22T00:34:28;99947.48;;;27.65;26.59
72024;BME280;59889;50.700;5.440;2023-07-22T00:36:53;99949.00;;;27.39;26.62
72024;BME280;59889;50.700;5.440;2023-07-22T00:39:19;99946.43;;;27.58;26.67
72024;BME280;59889;50.700;5.440;2023-07-22T00:41:45;99946.16;;;27.48;26.52
72024;BME280;59889;50.700;5.440;2023-07-22T00:44:11;99943.76;;;27.21;26.53
72024;BME280;59889;50.700;5.440;2023-07-22T00:46:37;99939.70;;;27.41;26.59
72024;BME280;59889;50.700;5.440;2023-07-22T00:49:05;99938.26;;;27.17;26.58
72024;BME280;59889;50.700;5.440;2023-07-22T00:51:29;99938.90;;;27.73;26.51
72024;BME280;59889;50.700;5.440;2023-07-22T00:53:54;99936.19;;;27.20;26.55
72024;BME280;59889;50.700;5.440;2023-07-22T00:56:20;99937.76;;;27.65;26.58
72024;BME280;59889;50.700;5.440;2023-07-22T00:58:46;99940.45;;;27.58;26.65
72024;BME280;59889;50.700;5.440;2023-07-22T01:01:12;99938.35;;;27.38;26.61
72024;BME280;59889;50.700;5.440;2023-07-22T01:03:38;99934.73;;;27.02;26.72
72024;BME280;59889;50.700;5.440;2023-07-22T01:06:04;99937.13;;;27.36;26.65
72024;BME280;59889;50.700;5.440;2023-07-22T01:08:29;99935.87;;;27.34;26.65
72024;BME280;59889;50.700;5.440;2023-07-22T01:10:55;99934.40;;;27.28;26.69
72024;BME280;59889;50.700;5.440;2023-07-22T01:13:21;99932.88;;;27.57;26.69
72024;BME280;59889;50.700;5.440;2023-07-22T01:15:47;99933.06;;;27.42;26.57
72024;BME280;59889;50.700;5.440;2023-07-22T01:18:13;99931.45;;;27.42;26.57
72024;BME280;59889;50.700;5.440;2023-07-22T01:20:39;99927.58;;;27.64;26.60
72024;BME280;59889;50.700;5.440;2023-07-22T01:23:05;99925.84;;;27.72;26.51
72024;BME280;59889;50.700;5.440;2023-07-22T01:25:30;99922.37;;;27.18;26.79
72024;BME280;59889;50.700;5.440;2023-07-22T01:27:56;99920.05;;;27.25;26.76
72024;BME280;59889;50.700;5.440;2023-07-22T01:30:22;99919.28;;;27.44;26.56
72024;BME280;59889;50.700;5.440;2023-07-22T01:32:48;99919.12;;;27.63;26.59
72024;BME280;59889;50.700;5.440;2023-07-22T01:35:14;99918.30;;;27.32;26.68
72024;BME280;59889;50.700;5.440;2023-07-22T01:37:40;99916.54;;;27.30;26.71
72024;BME280;59889;50.700;5.440;2023-07-22T01:40:06;99917.85;;;27.52;26.72
72024;BME280;59889;50.700;5.440;2023-07-22T01:42:31;99916.45;;;27.56;26.69
72024;BME280;59889;50.700;5.440;2023-07-22T01:44:57;99915.57;;;27.33;26.67
72024;BME280;59889;50.700;5.440;2023-07-22T01:47:23;99916.35;;;27.47;26.78
72024;BME280;59889;50.700;5.440;2023-07-22T01:49:49;99914.15;;;27.57;26.67
72024;BME280;59889;50.700;5.440;2023-07-22T01:52:15;99915.99;;;26.97;26.82
72024;BME280;59889;50.700;5.440;2023-07-22T01:54:41;99918.13;;;27.54;26.72
72024;BME280;59889;50.700;5.440;2023-07-22T01:57:06;99915.07;;;27.29;26.73
72024;BME280;59889;50.700;5.440;2023-07-22T01:59:32;99914.94;;;27.45;26.82
72024;BME280;59889;50.700;5.440;2023-07-22T02:01:58;99913.35;;;27.36;26.65
72024;BME280;59889;50.700;5.440;2023-07-22T02:04:24;99913.93;;;27.69;26.57
72024;BME280;59889;50.700;5.440;2023-07-22T02:06:50;99915.03;;;27.11;26.67
72024;BME280;59889;50.700;5.440;2023-07-22T02:09:16;99918.37;;;27.28;26.75
72024;BME280;59889;50.700;5.440;2023-07-22T02:11:42;99920.82;;;27.37;26.66
72024;BME280;59889;50.700;5.440;2023-07-22T02:14:07;99918.66;;;27.18;26.61
72024;BME280;59889;50.700;5.440;2023-07-22T02:16:34;99919.82;;;27.25;26.53
72024;BME280;59889;50.700;5.440;2023-07-22T02:18:59;99919.18;;;27.14;26.64
72024;BME280;59889;50.700;5.440;2023-07-22T02:21:25;99912.14;;;27.53;26.48
72024;BME280;59889;50.700;5.440;2023-07-22T02:23:51;99914.10;;;27.36;26.64
72024;BME280;59889;50.700;5.440;2023-07-22T02:26:17;99911.28;;;27.60;26.69
72024;BME280;59889;50.700;5.440;2023-07-22T02:28:43;99906.37;;;27.52;26.73
72024;BME280;59889;50.700;5.440;2023-07-22T02:31:08;99904.92;;;27.27;26.75
72024;BME280;59889;50.700;5.440;2023-07-22T02:33:34;99903.34;;;27.20;26.81
72024;BME280;59889;50.700;5.440;2023-07-22T02:36:00;99900.84;;;27.68;26.61
72024;BME280;59889;50.700;5.440;2023-07-22T02:38:26;99901.98;;;27.54;26.74
72024;BME280;59889;50.700;5.440;2023-07-22T02:40:52;99899.19;;;27.36;26.67
72024;BME280;59889;50.700;5.440;2023-07-22T02:43:18;99899.91;;;27.51;26.75
72024;BME280;59889;50.700;5.440;2023-07-22T02:45:43;99898.69;;;27.22;26.80
72024;BME280;59889;50.700;5.440;2023-07-22T02:48:09;99897.32;;;27.23;26.82
72024;BME280;59889;50.700;5.440;2023-07-22T02:50:35;99896.70;;;27.36;26.68
72024;BME280;59889;50.700;5.440;2023-07-22T02:53:01;99898.20;;;27.38;26.66
72024;BME280;59889;50.700;5.440;2023-07-22T02:55:27;99899.10;;;27.46;26.82
72024;BME280;59889;50.700;5.440;2023-07-22T02:57:53;99894.27;;;27.58;26.70
72024;BME280;59889;50.700;5.440;2023-07-22T03:00:19;99895.56;;;27.46;26.81
72024;BME280;59889;50.700;5.440;2023-07-22T03:02:44;99897.61;;;27.73;26.79
72024;BME280;59889;50.700;5.440;2023-07-22T03:05:10;99899.64;;;27.48;26.80
72024;BME280;59889;50.700;5.440;2023-07-22T03:07:37;99900.39;;;27.36;26.93
72024;BME280;59889;50.700;5.440;2023-07-22T03:10:02;99902.63;;;27.17;26.88
72024;BME280;59889;50.700;5.440;2023-07-22T03:12:28;99902.62;;;27.57;26.71
72024;BME280;59889;50.700;5.440;2023-07-22T03:14:53;99900.34;;;27.54;26.74
72024;BME280;59889;50.700;5.440;2023-07-22T03:17:19;99899.40;;;27.40;26.88
72024;BME280;59889;50.700;5.440;2023-07-22T03:19:45;99899.25;;;27.06;26.75
72024;BME280;59889;50.700;5.440;2023-07-22T03:22:14;99899.60;;;27.28;26.75
72024;BME280;59889;50.700;5.440;2023-07-22T03:24:37;99897.68;;;27.27;26.76
72024;BME280;59889;50.700;5.440;2023-07-22T03:27:03;99901.65;;;27.19;26.86
72024;BME280;59889;50.700;5.440;2023-07-22T03:29:29;99900.11;;;27.43;26.88
72024;BME280;59889;50.700;5.440;2023-07-22T03:31:54;99902.20;;;27.55;26.73
72024;BME280;59889;50.700;5.440;2023-07-22T03:34:20;99903.67;;;27.18;26.85
72024;BME280;59889;50.700;5.440;2023-07-22T03:36:46;99904.68;;;27.31;26.98
72024;BME280;59889;50.700;5.440;2023-07-22T03:39:12;99910.47;;;27.26;26.80
72024;BME280;59889;50.700;5.440;2023-07-22T03:41:38;99916.51;;;27.44;26.84
72024;BME280;59889;50.700;5.440;2023-07-22T03:44:04;99921.54;;;27.38;26.91
72024;BME280;59889;50.700;5.440;2023-07-22T03:46:29;99924.41;;;27.42;26.87
72024;BME280;59889;50.700;5.440;2023-07-22T03:48:55;99922.08;;;27.46;26.84
72024;BME280;59889;50.700;5.440;2023-07-22T03:51:21;99921.50;;;27.54;26.77
72024;BME280;59889;50.700;5.440;2023-07-22T03:53:47;99919.44;;;27.39;26.92
72024;BME280;59889;50.700;5.440;2023-07-22T03:56:13;99920.56;;;27.31;26.99
72024;BME280;59889;50.700;5.440;2023-07-22T03:58:39;99921.51;;;27.48;26.81
72024;BME280;59889;50.700;5.440;2023-07-22T04:01:05;99921.08;;;27.39;26.90
72024;BME280;59889;50.700;5.440;2023-07-22T04:03:30;99920.19;;;27.22;26.83
72024;BME280;59889;50.700;5.440;2023-07-22T04:05:56;99917.00;;;27.25;27.04
72024;BME280;59889;50.700;5.440;2023-07-22T04:08:22;99917.27;;;27.48;26.80
72024;BME280;59889;50.700;5.440;2023-07-22T04:10:51;99917.20;;;27.44;26.83
72024;BME280;59889;50.700;5.440;2023-07-22T04:13:14;99917.25;;;27.22;26.82
72024;BME280;59889;50.700;5.440;2023-07-22T04:15:40;99913.52;;;27.20;26.82
72024;BME280;59889;50.700;5.440;2023-07-22T04:18:05;99916.24;;;27.17;27.08
72024;BME280;59889;50.700;5.440;2023-07-22T04:20:31;99916.98;;;27.43;26.82
72024;BME280;59889;50.700;5.440;2023-07-22T04:22:58;99916.00;;;27.36;26.90
72024;BME280;59889;50.700;5.440;2023-07-22T04:25:23;99916.43;;;27.26;27.00
72024;BME280;59889;50.700;5.440;2023-07-22T04:27:49;99917.30;;;26.81;26.96
72024;BME280;59889;50.700;5.440;2023-07-22T04:30:15;99918.99;;;27.36;26.87
72024;BME280;59889;50.700;5.440;2023-07-22T04:32:40;99919.14;;;27.38;26.87
72024;BME280;59889;50.700;5.440;2023-07-22T04:35:07;99915.63;;;27.38;26.87
72024;BME280;59889;50.700;5.440;2023-07-22T04:37:32;99916.64;;;27.09;26.89
72024;BME280;59889;50.700;5.440;2023-07-22T04:39:58;99918.54;;;27.24;26.98
72024;BME280;59889;50.700;5.440;2023-07-22T04:42:24;99917.78;;;27.40;26.81
72024;BME280;59889;50.700;5.440;2023-07-22T04:44:50;99917.22;;;27.39;26.84
72024;BME280;59889;50.700;5.440;2023-07-22T04:47:16;99916.31;;;27.39;26.83
72024;BME280;59889;50.700;5.440;2023-07-22T04:49:41;99914.36;;;26.85;27.80
72024;BME280;59889;50.700;5.440;2023-07-22T04:52:07;99913.94;;;26.98;27.67
72024;BME280;59889;50.700;5.440;2023-07-22T04:54:33;99912.58;;;26.93;27.94
72024;BME280;59889;50.700;5.440;2023-07-22T04:56:59;99913.17;;;26.44;28.23
72024;BME280;59889;50.700;5.440;2023-07-22T04:59:24;99908.89;;;26.05;28.33
72024;BME280;59889;50.700;5.440;2023-07-22T05:01:50;99909.94;;;26.38;28.22
72024;BME280;59889;50.700;5.440;2023-07-22T05:04:16;99911.54;;;26.39;28.40
72024;BME280;59889;50.700;5.440;2023-07-22T05:06:42;99912.09;;;26.32;28.19
72024;BME280;59889;50.700;5.440;2023-07-22T05:09:08;99913.94;;;26.25;28.19
72024;BME280;59889;50.700;5.440;2023-07-22T05:11:34;99911.60;;;26.52;28.11
72024;BME280;59889;50.700;5.440;2023-07-22T05:14:00;99912.83;;;26.30;28.10
72024;BME280;59889;50.700;5.440;2023-07-22T05:16:26;99910.43;;;26.30;28.01
72024;BME280;59889;50.700;5.440;2023-07-22T05:18:52;99911.80;;;26.28;28.06
72024;BME280;59889;50.700;5.440;2023-07-22T05:21:17;99913.67;;;26.53;27.96
72024;BME280;59889;50.700;5.440;2023-07-22T05:23:43;99912.79;;;26.52;27.95
72024;BME280;59889;50.700;5.440;2023-07-22T05:26:09;99913.54;;;26.48;27.95
72024;BME280;59889;50.700;5.440;2023-07-22T05:28:35;99916.87;;;26.43;27.68
72024;BME280;59889;50.700;5.440;2023-07-22T05:31:01;99916.65;;;26.25;27.87
72024;BME280;59889;50.700;5.440;2023-07-22T05:33:27;99917.52;;;26.19;27.91
72024;BME280;59889;50.700;5.440;2023-07-22T05:35:52;99918.76;;;26.30;27.77
72024;BME280;59889;50.700;5.440;2023-07-22T05:38:18;99919.69;;;26.58;27.79
72024;BME280;59889;50.700;5.440;2023-07-22T05:40:44;99920.59;;;26.62;27.77
72024;BME280;59889;50.700;5.440;2023-07-22T05:43:11;99921.04;;;26.21;27.85
72024;BME280;59889;50.700;5.440;2023-07-22T05:45:36;99920.18;;;26.44;27.85
72024;BME280;59889;50.700;5.440;2023-07-22T05:48:01;99920.21;;;26.32;28.04
72024;BME280;59889;50.700;5.440;2023-07-22T05:50:26;99920.14;;;26.34;27.63
72024;BME280;59889;50.700;5.440;2023-07-22T05:52:51;99922.84;;;25.99;27.59
72024;BME280;59889;50.700;5.440;2023-07-22T05:55:17;99925.89;;;26.18;27.64
72024;BME280;59889;50.700;5.440;2023-07-22T05:57:42;99924.99;;;26.39;27.68
72024;BME280;59889;50.700;5.440;2023-07-22T06:00:08;99921.74;;;26.29;27.70
72024;BME280;59889;50.700;5.440;2023-07-22T06:02:33;99922.78;;;26.54;27.66
72024;BME280;59889;50.700;5.440;2023-07-22T06:04:59;99923.06;;;26.20;27.52
72024;BME280;59889;50.700;5.440;2023-07-22T06:07:25;99923.71;;;26.39;27.51
72024;BME280;59889;50.700;5.440;2023-07-22T06:09:51;99923.08;;;26.18;27.51
72024;BME280;59889;50.700;5.440;2023-07-22T06:12:17;99925.66;;;26.17;27.48
72024;BME280;59889;50.700;5.440;2023-07-22T06:14:43;99924.68;;;26.47;27.37
72024;BME280;59889;50.700;5.440;2023-07-22T06:17:08;99927.75;;;26.39;27.47
72024;BME280;59889;50.700;5.440;2023-07-22T06:19:34;99927.03;;;26.01;27.62
72024;BME280;59889;50.700;5.440;2023-07-22T06:22:00;99927.56;;;26.00;27.59
72024;BME280;59889;50.700;5.440;2023-07-22T06:24:26;99931.10;;;26.15;27.45
72024;BME280;59889;50.700;5.440;2023-07-22T06:26:52;99933.65;;;25.93;27.68
72024;BME280;59889;50.700;5.440;2023-07-22T06:29:17;99932.12;;;26.32;27.45
72024;BME280;59889;50.700;5.440;2023-07-22T06:31:42;99934.85;;;26.48;27.34
72024;BME280;59889;50.700;5.440;2023-07-22T06:34:07;99934.63;;;26.38;27.49
72024;BME280;59889;50.700;5.440;2023-07-22T06:36:32;99935.28;;;26.57;27.52
72024;BME280;59889;50.700;5.440;2023-07-22T06:38:57;99937.11;;;26.48;27.40
72024;BME280;59889;50.700;5.440;2023-07-22T06:41:23;99934.97;;;26.15;27.59
72024;BME280;59889;50.700;5.440;2023-07-22T06:43:49;99935.20;;;26.17;27.80
72024;BME280;59889;50.700;5.440;2023-07-22T06:46:14;99932.92;;;26.29;27.77
72024;BME280;59889;50.700;5.440;2023-07-22T06:48:40;99936.87;;;26.41;27.58
72024;BME280;59889;50.700;5.440;2023-07-22T06:51:06;99934.49;;;26.28;27.54
72024;BME280;59889;50.700;5.440;2023-07-22T06:53:30;99933.27;;;26.04;27.80
72024;BME280;59889;50.700;5.440;2023-07-22T06:55:55;99936.10;;;26.20;27.67
72024;BME280;59889;50.700;5.440;2023-07-22T06:58:21;99931.14;;;26.60;27.78
72024;BME280;59889;50.700;5.440;2023-07-22T07:00:46;99929.65;;;26.34;27.74
72024;BME280;59889;50.700;5.440;2023-07-22T07:03:11;99928.04;;;26.12;27.80
72024;BME280;59889;50.700;5.440;2023-07-22T07:05:36;99926.79;;;26.26;27.82
72024;BME280;59889;50.700;5.440;2023-07-22T07:08:01;99928.63;;;26.19;27.90
72024;BME280;59889;50.700;5.440;2023-07-22T07:10:26;99930.04;;;26.34;27.95
72024;BME280;59889;50.700;5.440;2023-07-22T07:12:51;99932.05;;;26.02;27.84
72024;BME280;59889;50.700;5.440;2023-07-22T07:15:16;99935.98;;;25.91;28.09
72024;BME280;59889;50.700;5.440;2023-07-22T07:17:41;99935.47;;;26.43;28.18
72024;BME280;59889;50.700;5.440;2023-07-22T07:20:07;99934.30;;;26.28;28.18
72024;BME280;59889;50.700;5.440;2023-07-22T07:22:31;99933.33;;;25.88;28.60
72024;BME280;59889;50.700;5.440;2023-07-22T07:24:56;99937.11;;;25.95;28.64
72024;BME280;59889;50.700;5.440;2023-07-22T07:27:22;99936.08;;;26.12;28.66
72024;BME280;59889;50.700;5.440;2023-07-22T07:29:47;99940.57;;;26.04;29.01
72024;BME280;59889;50.700;5.440;2023-07-22T07:32:12;99942.64;;;26.23;29.04
72024;BME280;59889;50.700;5.440;2023-07-22T07:34:37;99939.23;;;26.12;29.31
72024;BME280;59889;50.700;5.440;2023-07-22T07:37:03;99940.81;;;26.37;29.12
72024;BME280;59889;50.700;5.440;2023-07-22T07:39:28;99938.67;;;26.31;29.35
72024;BME280;59889;50.700;5.440;2023-07-22T07:41:55;99936.73;;;26.25;29.45
72024;BME280;59889;50.700;5.440;2023-07-22T07:44:19;99940.01;;;26.21;29.52
72024;BME280;59889;50.700;5.440;2023-07-22T07:46:45;99942.33;;;26.45;29.56
72024;BME280;59889;50.700;5.440;2023-07-22T07:49:10;99942.65;;;26.20;29.55
72024;BME280;59889;50.700;5.440;2023-07-22T07:51:36;99942.75;;;26.45;29.18
72024;BME280;59889;50.700;5.440;2023-07-22T07:54:01;99941.14;;;25.99;29.39
72024;BME280;59889;50.700;5.440;2023-07-22T07:56:26;99940.24;;;26.02;29.75
72024;BME280;59889;50.700;5.440;2023-07-22T07:58:53;99937.85;;;25.88;29.42
72024;BME280;59889;50.700;5.440;2023-07-22T08:01:17;99938.46;;;26.08;28.70
72024;BME280;59889;50.700;5.440;2023-07-22T08:03:43;99939.47;;;26.24;28.48
72024;BME280;59889;50.700;5.440;2023-07-22T08:06:08;99932.49;;;26.01;28.39
72024;BME280;59889;50.700;5.440;2023-07-22T08:08:34;99933.47;;;25.84;28.21
72024;BME280;59889;50.700;5.440;2023-07-22T08:10:59;99935.87;;;26.42;27.81
72024;BME280;59889;50.700;5.440;2023-07-22T08:13:23;99934.62;;;26.64;27.80
72024;BME280;59889;50.700;5.440;2023-07-22T08:15:48;99929.49;;;26.47;27.72
72024;BME280;59889;50.700;5.440;2023-07-22T08:18:14;99927.17;;;26.53;27.63
72024;BME280;59889;50.700;5.440;2023-07-22T08:20:39;99927.36;;;26.75;27.68
72024;BME280;59889;50.700;5.440;2023-07-22T08:23:05;99932.04;;;26.52;27.65
72024;BME280;59889;50.700;5.440;2023-07-22T08:25:30;99931.59;;;26.78;27.55
72024;BME280;59889;50.700;5.440;2023-07-22T08:27:55;99932.92;;;26.52;27.51
72024;BME280;59889;50.700;5.440;2023-07-22T08:30:21;99936.78;;;26.80;27.44
72024;BME280;59889;50.700;5.440;2023-07-22T08:32:46;99933.30;;;26.27;27.18
72024;BME280;59889;50.700;5.440;2023-07-22T08:35:11;99929.32;;;26.50;27.06
72024;BME280;59889;50.700;5.440;2023-07-22T08:37:36;99927.89;;;26.40;27.09
72024;BME280;59889;50.700;5.440;2023-07-22T08:40:03;99926.79;;;26.55;26.94
72024;BME280;59889;50.700;5.440;2023-07-22T08:42:28;99924.76;;;26.23;26.96
72024;BME280;59889;50.700;5.440;2023-07-22T08:44:56;99925.17;;;26.43;26.91
72024;BME280;59889;50.700;5.440;2023-07-22T08:47:21;99925.55;;;26.88;26.68
72024;BME280;59889;50.700;5.440;2023-07-22T08:49:48;99926.21;;;26.24;26.75
72024;BME280;59889;50.700;5.440;2023-07-22T08:52:12;99924.75;;;26.53;26.65
72024;BME280;59889;50.700;5.440;2023-07-22T08:54:37;99921.81;;;26.39;26.69
72024;BME280;59889;50.700;5.440;2023-07-22T08:57:03;99920.99;;;26.53;26.49
72024;BME280;59889;50.700;5.440;2023-07-22T08:59:29;99920.96;;;26.43;26.56
72024;BME280;59889;50.700;5.440;2023-07-22T09:01:54;99927.85;;;26.58;26.42
72024;BME280;59889;50.700;5.440;2023-07-22T09:04:20;99923.13;;;26.54;26.34
72024;BME280;59889;50.700;5.440;2023-07-22T09:06:45;99917.95;;;26.26;26.38
72024;BME280;59889;50.700;5.440;2023-07-22T09:09:11;99920.28;;;26.45;26.24
72024;BME280;59889;50.700;5.440;2023-07-22T09:11:37;99919.57;;;26.50;26.16
72024;BME280;59889;50.700;5.440;2023-07-22T09:14:02;99926.65;;;26.41;26.27
72024;BME280;59889;50.700;5.440;2023-07-22T09:16:27;99922.31;;;26.25;26.12
72024;BME280;59889;50.700;5.440;2023-07-22T09:18:54;99923.33;;;25.93;25.90
72024;BME280;59889;50.700;5.440;2023-07-22T09:21:17;99918.27;;;26.30;25.89
72024;BME280;59889;50.700;5.440;2023-07-22T09:23:42;99916.83;;;26.20;25.84
72024;BME280;59889;50.700;5.440;2023-07-22T09:26:09;99920.67;;;26.38;25.72
72024;BME280;59889;50.700;5.440;2023-07-22T09:28:47;99917.69;;;26.26;25.48
72024;BME280;59889;50.700;5.440;2023-07-22T09:31:01;99915.93;;;26.39;25.47
72024;BME280;59889;50.700;5.440;2023-07-22T09:33:22;99917.60;;;26.49;25.64
72024;BME280;59889;50.700;5.440;2023-07-22T09:35:49;99917.49;;;26.44;25.61
72024;BME280;59889;50.700;5.440;2023-07-22T09:38:13;99921.00;;;26.06;25.31
72024;BME280;59889;50.700;5.440;2023-07-22T09:40:40;99916.63;;;26.07;25.04
72024;BME280;59889;50.700;5.440;2023-07-22T09:43:03;99918.56;;;26.72;24.89
72024;BME280;59889;50.700;5.440;2023-07-22T09:45:29;99914.68;;;26.32;24.88
72024;BME280;59889;50.700;5.440;2023-07-22T09:47:56;99923.09;;;26.73;24.69
72024;BME280;59889;50.700;5.440;2023-07-22T09:50:19;99921.80;;;26.75;24.48
72024;BME280;59889;50.700;5.440;2023-07-22T09:52:45;99914.34;;;26.68;24.68
72024;BME280;59889;50.700;5.440;2023-07-22T09:55:08;99913.39;;;26.51;24.61
72024;BME280;59889;50.700;5.440;2023-07-22T09:57:33;99913.52;;;26.44;24.69
72024;BME280;59889;50.700;5.440;2023-07-22T09:59:58;99916.69;;;26.53;24.73
72024;BME280;59889;50.700;5.440;2023-07-22T10:02:23;99909.61;;;26.62;24.73
72024;BME280;59889;50.700;5.440;2023-07-22T10:04:48;99911.97;;;26.49;24.78
72024;BME280;59889;50.700;5.440;2023-07-22T10:07:14;99911.04;;;26.43;24.81
72024;BME280;59889;50.700;5.440;2023-07-22T10:09:38;99915.39;;;26.33;24.84
72024;BME280;59889;50.700;5.440;2023-07-22T10:12:04;99918.77;;;26.46;24.66
72024;BME280;59889;50.700;5.440;2023-07-22T10:14:28;99913.50;;;26.46;24.42
72024;BME280;59889;50.700;5.440;2023-07-22T10:16:54;99914.46;;;26.17;24.41
72024;BME280;59889;50.700;5.440;2023-07-22T10:19:18;99913.85;;;26.71;24.37
72024;BME280;59889;50.700;5.440;2023-07-22T10:21:43;99909.77;;;26.34;24.48
72024;BME280;59889;50.700;5.440;2023-07-22T10:24:09;99905.46;;;25.98;24.56
72024;BME280;59889;50.700;5.440;2023-07-22T10:26:34;99912.02;;;26.59;24.25
72024;BME280;59889;50.700;5.440;2023-07-22T10:28:59;99916.26;;;26.51;24.30
72024;BME280;59889;50.700;5.440;2023-07-22T10:31:25;99906.89;;;26.32;24.23
72024;BME280;59889;50.700;5.440;2023-07-22T10:33:51;99904.06;;;26.45;24.38
72024;BME280;59889;50.700;5.440;2023-07-22T10:36:16;99903.26;;;26.52;24.39
72024;BME280;59889;50.700;5.440;2023-07-22T10:38:42;99895.29;;;26.50;24.32
72024;BME280;59889;50.700;5.440;2023-07-22T10:41:12;99897.69;;;26.48;24.34
72024;BME280;59889;50.700;5.440;2023-07-22T10:43:32;99892.15;;;26.05;24.32
72024;BME280;59889;50.700;5.440;2023-07-22T10:45:57;99892.45;;;26.51;24.05
72024;BME280;59889;50.700;5.440;2023-07-22T10:48:24;99883.63;;;26.46;23.97
72024;BME280;59889;50.700;5.440;2023-07-22T10:50:47;99881.31;;;26.29;23.88
72024;BME280;59889;50.700;5.440;2023-07-22T10:53:12;99878.23;;;26.36;23.91
72024;BME280;59889;50.700;5.440;2023-07-22T10:58:04;99875.46;;;26.54;24.09
72024;BME280;59889;50.700;5.440;2023-07-22T11:00:29;99874.50;;;26.43;24.24
72024;BME280;59889;50.700;5.440;2023-07-22T11:03:09;99873.47;;;26.38;24.12
72024;BME280;59889;50.700;5.440;2023-07-22T11:05:18;99870.09;;;26.54;24.19
72024;BME280;59889;50.700;5.440;2023-07-22T11:07:44;99874.72;;;26.43;24.14
72024;BME280;59889;50.700;5.440;2023-07-22T11:10:14;99869.96;;;26.33;24.17
72024;BME280;59889;50.700;5.440;2023-07-22T11:12:38;99871.11;;;26.50;24.07
72024;BME280;59889;50.700;5.440;2023-07-22T11:15:03;99875.74;;;26.51;24.06
72024;BME280;59889;50.700;5.440;2023-07-22T11:17:28;99875.33;;;26.58;24.15
72024;BME280;59889;50.700;5.440;2023-07-22T11:19:51;99868.74;;;26.29;24.21
72024;BME280;59889;50.700;5.440;2023-07-22T11:22:17;99868.76;;;26.42;24.22
72024;BME280;59889;50.700;5.440;2023-07-22T11:24:43;99861.19;;;26.62;24.04
72024;BME280;59889;50.700;5.440;2023-07-22T11:27:08;99861.04;;;26.26;24.44
72024;BME280;59889;50.700;5.440;2023-07-22T11:29:34;99856.88;;;26.48;24.62
72024;BME280;59889;50.700;5.440;2023-07-22T11:32:00;99848.91;;;26.55;24.44
72024;BME280;59889;50.700;5.440;2023-07-22T11:34:26;99850.01;;;26.53;24.49
72024;BME280;59889;50.700;5.440;2023-07-22T11:36:53;99846.85;;;26.08;25.00
72024;BME280;59889;50.700;5.440;2023-07-22T11:39:19;99854.14;;;26.61;24.91
72024;BME280;59889;50.700;5.440;2023-07-22T11:41:44;99851.11;;;26.42;24.71
72024;BME280;59889;50.700;5.440;2023-07-22T11:44:10;99852.41;;;26.50;24.48
72024;BME280;59889;50.700;5.440;2023-07-22T11:46:35;99856.14;;;26.43;24.55
72024;BME280;59889;50.700;5.440;2023-07-22T11:49:01;99848.48;;;26.66;24.50
72024;BME280;59889;50.700;5.440;2023-07-22T11:51:27;99845.34;;;26.68;24.57
72024;BME280;59889;50.700;5.440;2023-07-22T11:53:54;99838.86;;;26.35;24.78
72024;BME280;59889;50.700;5.440;2023-07-22T11:56:21;99840.59;;;26.66;24.61
72024;BME280;59889;50.700;5.440;2023-07-22T11:58:49;99830.86;;;26.78;24.52
72024;BME280;59889;50.700;5.440;2023-07-22T12:01:10;99839.82;;;26.48;24.47
72024;BME280;59889;50.700;5.440;2023-07-22T12:03:36;99840.67;;;26.78;24.05
72024;BME280;59889;50.700;5.440;2023-07-22T12:06:25;99836.62;;;26.85;23.99
72024;BME280;59889;50.700;5.440;2023-07-22T12:08:28;99832.22;;;26.54;23.60
72024;BME280;59889;50.700;5.440;2023-07-22T12:10:56;99835.42;;;26.70;23.35
72024;BME280;59889;50.700;5.440;2023-07-22T12:13:19;99843.62;;;26.69;23.39
72024;BME280;59889;50.700;5.440;2023-07-22T12:18:11;99826.26;;;26.75;23.33
72024;BME280;59889;50.700;5.440;2023-07-22T12:20:37;99829.95;;;26.61;23.38
72024;BME280;59889;50.700;5.440;2023-07-22T12:23:03;99827.95;;;26.63;23.17
72024;BME280;59889;50.700;5.440;2023-07-22T12:25:29;99825.93;;;26.56;23.10
72024;BME280;59889;50.700;5.440;2023-07-22T12:27:54;99823.01;;;26.27;23.14
72024;BME280;59889;50.700;5.440;2023-07-22T12:30:21;99824.39;;;26.33;23.06
72024;BME280;59889;50.700;5.440;2023-07-22T12:32:46;99820.14;;;26.28;22.94
72024;BME280;59889;50.700;5.440;2023-07-22T12:35:11;99819.58;;;26.69;22.78
72024;BME280;59889;50.700;5.440;2023-07-22T12:37:37;99815.27;;;26.20;22.95
72024;BME280;59889;50.700;5.440;2023-07-22T12:40:03;99815.60;;;26.27;22.85
72024;BME280;59889;50.700;5.440;2023-07-22T12:42:27;99813.82;;;26.54;22.82
72024;BME280;59889;50.700;5.440;2023-07-22T12:44:53;99815.73;;;26.66;22.72
72024;BME280;59889;50.700;5.440;2023-07-22T12:47:19;99811.27;;;26.63;22.80
72024;BME280;59889;50.700;5.440;2023-07-22T12:49:45;99809.82;;;26.77;22.93
72024;BME280;59889;50.700;5.440;2023-07-22T12:52:11;99811.69;;;26.70;22.98
72024;BME280;59889;50.700;5.440;2023-07-22T12:54:36;99812.36;;;26.72;22.99